Time;durP1;ratioP1;P1;durP2;ratioP2;P2;SDS_P1;SDS_P2;PMS_P1;PMS_P2;Temp;Humidity;BMP_temperature;BMP_pressure;BME280_temperature;BME280_humidity;BME280_pressure;Samples;Min_cycle;Max_cycle;Signal;HPM_P1;HPM_P2
2022/10/12 00:00:48;;;;;;;12.10;6.57;;;21.20;49.80;;;;;;5076485;28;20441;-78
2022/10/12 00:03:17;;;;;;;12.60;6.60;;;21.20;49.70;;;;;;5077688;28;20445;-79
2022/10/12 00:05:44;;;;;;;9.70;7.40;;;21.10;49.80;;;;;;5080030;28;20449;-79
2022/10/12 00:08:13;;;;;;;11.80;6.97;;;21.10;50.00;;;;;;5088942;28;20453;-78
2022/10/12 00:10:41;;;;;;;8.20;6.10;;;21.10;50.00;;;;;;5096880;28;20472;-79
2022/10/12 00:13:10;;;;;;;8.63;6.60;;;21.10;49.90;;;;;;5096561;28;20429;-78
2022/10/12 00:15:39;;;;;;;9.53;6.50;;;21.10;49.90;;;;;;5094442;28;20475;-78
2022/10/12 00:18:07;;;;;;;10.67;6.97;;;21.10;49.90;;;;;;5092731;28;20427;-77
2022/10/12 00:20:34;;;;;;;9.57;6.40;;;21.00;50.00;;;;;;5091194;28;20454;-77
2022/10/12 00:23:02;;;;;;;11.23;6.37;;;21.00;49.90;;;;;;5084028;28;20460;-77
2022/10/12 00:25:30;;;;;;;7.00;6.00;;;21.00;50.10;;;;;;5086287;28;20456;-77
2022/10/12 00:27:58;;;;;;;8.90;5.87;;;21.00;50.10;;;;;;5085181;28;20444;-78
2022/10/12 00:30:28;;;;;;;8.90;6.10;;;21.00;50.10;;;;;;5075350;28;20457;-77
2022/10/12 00:32:56;;;;;;;8.37;6.17;;;20.90;50.00;;;;;;5073524;28;20432;-77
2022/10/12 00:35:25;;;;;;;7.87;5.80;;;20.90;50.10;;;;;;5074413;28;20427;-77
2022/10/12 00:37:54;;;;;;;9.13;6.27;;;20.90;50.20;;;;;;5090970;28;20463;-77
2022/10/12 00:40:22;;;;;;;17.23;11.90;;;20.90;50.20;;;;;;5083616;28;20441;-78
2022/10/12 00:42:50;;;;;;;18.03;10.90;;;20.90;50.20;;;;;;5093973;28;20476;-77
2022/10/12 00:45:18;;;;;;;11.10;8.10;;;20.90;50.30;;;;;;5094327;28;20452;-78
2022/10/12 00:47:49;;;;;;;12.20;8.37;;;20.90;50.20;;;;;;5083585;28;20450;-78
2022/10/12 00:50:19;;;;;;;11.63;8.03;;;20.80;50.10;;;;;;5091297;28;20475;-78
2022/10/12 00:52:49;;;;;;;11.30;7.80;;;20.80;50.20;;;;;;5087719;28;20478;-78
2022/10/12 00:55:18;;;;;;;11.10;7.23;;;20.80;50.30;;;;;;5082982;28;20460;-78
2022/10/12 00:57:46;;;;;;;10.00;6.37;;;20.70;50.20;;;;;;5081522;28;20453;-78
2022/10/12 01:00:15;;;;;;;12.67;6.43;;;20.70;50.30;;;;;;5093231;28;20540;-77
2022/10/12 01:02:43;;;;;;;9.07;6.60;;;20.60;50.20;;;;;;5090728;28;20472;-78
2022/10/12 01:05:12;;;;;;;12.70;6.97;;;20.60;50.40;;;;;;5075923;28;20435;-78
2022/10/12 01:07:40;;;;;;;11.73;6.43;;;20.60;50.30;;;;;;5078192;28;20532;-78
2022/10/12 01:10:09;;;;;;;9.20;5.90;;;20.60;50.40;;;;;;5094522;28;20447;-78
2022/10/12 01:12:37;;;;;;;7.93;5.93;;;20.60;50.50;;;;;;5076182;28;20455;-79
2022/10/12 01:15:06;;;;;;;7.83;5.90;;;20.50;50.40;;;;;;5090724;28;20424;-77
2022/10/12 01:17:36;;;;;;;9.73;6.63;;;20.50;50.70;;;;;;5091506;28;20463;-79
2022/10/12 01:20:39;;;;;;;8.97;6.20;;;20.50;50.60;;;;;;5081945;28;20453;-77
2022/10/12 01:23:46;;;;;;;8.30;5.90;;;20.50;50.60;;;;;;5086059;28;20434;-78
2022/10/12 01:26:24;;;;;;;6.90;5.70;;;20.40;50.40;;;;;;5079873;28;20455;-78
2022/10/12 01:28:55;;;;;;;8.97;5.80;;;20.40;50.60;;;;;;5093657;28;20412;-78
2022/10/12 01:31:26;;;;;;;9.07;5.47;;;20.40;50.70;;;;;;5093252;28;20487;-78
2022/10/12 01:34:00;;;;;;;8.43;5.43;;;20.40;50.80;;;;;;5088865;28;20503;-78
2022/10/12 01:36:31;;;;;;;12.73;6.07;;;20.40;50.70;;;;;;5088950;28;20448;-77
2022/10/12 01:39:02;;;;;;;10.57;5.63;;;20.30;50.60;;;;;;5079019;28;20461;-78
2022/10/12 01:41:31;;;;;;;8.83;5.10;;;20.30;50.80;;;;;;5076640;28;20460;-77
2022/10/12 01:44:00;;;;;;;9.70;5.33;;;20.30;50.90;;;;;;5073312;28;20952;-78
2022/10/12 01:46:42;;;;;;;6.93;4.93;;;20.30;50.90;;;;;;5083445;28;20452;-78
2022/10/12 01:49:10;;;;;;;6.13;5.17;;;20.30;50.60;;;;;;5090575;28;20448;-78
2022/10/12 01:51:46;;;;;;;8.50;5.17;;;20.20;50.80;;;;;;5086573;28;20477;-78
2022/10/12 01:54:17;;;;;;;6.03;4.90;;;20.30;50.90;;;;;;5095659;28;20467;-77
2022/10/12 01:56:48;;;;;;;5.97;4.63;;;20.20;50.60;;;;;;5087843;28;20465;-79
2022/10/12 01:59:19;;;;;;;8.67;5.47;;;20.20;50.80;;;;;;5105270;28;20444;-80
2022/10/12 02:01:50;;;;;;;9.10;5.00;;;20.20;50.90;;;;;;5089352;28;20511;-79
2022/10/12 02:04:20;;;;;;;6.93;4.73;;;20.20;50.90;;;;;;5076640;28;20453;-77
2022/10/12 02:06:51;;;;;;;7.00;4.40;;;20.20;50.90;;;;;;5093569;28;20427;-78
2022/10/12 02:09:20;;;;;;;6.67;5.10;;;20.20;51.00;;;;;;5101666;28;20457;-80
2022/10/12 02:11:49;;;;;;;7.07;4.80;;;20.10;50.80;;;;;;5099974;28;20451;-79
2022/10/12 02:14:17;;;;;;;10.23;4.90;;;20.10;50.90;;;;;;5090947;28;20420;-80
2022/10/12 02:16:49;;;;;;;4.93;4.27;;;20.10;50.80;;;;;;5088154;28;20457;-80
2022/10/12 02:19:19;;;;;;;8.47;5.07;;;20.00;50.90;;;;;;5104018;28;20425;-81
2022/10/12 02:21:47;;;;;;;8.23;4.43;;;20.00;50.90;;;;;;5097805;28;21010;-81
2022/10/12 02:24:15;;;;;;;7.60;4.93;;;20.00;50.90;;;;;;5100046;28;20502;-82
2022/10/12 02:26:43;;;;;;;6.13;4.60;;;19.90;51.00;;;;;;5086518;28;20436;-79
2022/10/12 02:29:14;;;;;;;6.33;4.40;;;19.90;51.00;;;;;;5085606;28;20410;-79
2022/10/12 02:31:45;;;;;;;6.10;4.17;;;19.90;51.10;;;;;;5085605;28;20474;-79
2022/10/12 02:34:16;;;;;;;5.37;4.47;;;19.90;51.00;;;;;;5093971;28;20448;-79
2022/10/12 02:36:47;;;;;;;5.90;4.50;;;19.90;50.90;;;;;;5087872;28;20463;-79
2022/10/12 02:39:16;;;;;;;7.20;5.20;;;19.90;51.10;;;;;;5090326;28;20453;-79
2022/10/12 02:41:46;;;;;;;6.03;4.30;;;19.90;51.10;;;;;;5091120;28;20472;-79
2022/10/12 02:44:16;;;;;;;6.60;4.60;;;19.90;51.20;;;;;;5085704;28;20441;-79
2022/10/12 02:46:44;;;;;;;8.13;4.80;;;19.90;51.20;;;;;;5090942;28;20453;-80
2022/10/12 02:49:14;;;;;;;5.37;4.40;;;19.90;51.20;;;;;;5103509;28;20444;-80
2022/10/12 02:51:41;;;;;;;5.93;4.50;;;19.90;51.20;;;;;;5102177;28;20491;-80
2022/10/12 02:54:10;;;;;;;5.70;4.30;;;19.80;51.00;;;;;;5100013;28;20443;-79
2022/10/12 02:56:42;;;;;;;5.50;4.07;;;19.80;51.20;;;;;;5100791;28;20452;-79
2022/10/12 02:59:10;;;;;;;6.03;4.40;;;19.80;51.10;;;;;;5104465;28;20435;-79
2022/10/12 03:01:38;;;;;;;5.33;4.53;;;19.80;51.10;;;;;;5099594;28;20447;-79
2022/10/12 03:04:06;;;;;;;6.43;4.13;;;19.80;51.20;;;;;;5091503;28;20478;-80
2022/10/12 03:06:35;;;;;;;6.60;4.47;;;19.70;51.10;;;;;;5091032;28;20453;-80
2022/10/12 03:09:04;;;;;;;5.53;4.30;;;19.70;51.20;;;;;;5103530;28;20448;-80
2022/10/12 03:11:31;;;;;;;6.13;3.90;;;19.70;51.40;;;;;;5096303;28;20488;-78
2022/10/12 03:13:59;;;;;;;4.73;3.80;;;19.60;51.40;;;;;;5093530;28;20452;-80
2022/10/12 03:16:27;;;;;;;6.57;4.63;;;19.70;51.30;;;;;;5093778;28;20453;-80
2022/10/12 03:18:55;;;;;;;4.47;4.07;;;19.60;51.20;;;;;;5094023;28;20464;-80
2022/10/12 03:21:23;;;;;;;5.80;4.00;;;19.60;51.30;;;;;;5098949;28;20464;-79
2022/10/12 03:23:52;;;;;;;4.77;3.93;;;19.60;51.30;;;;;;5093040;28;20452;-79
2022/10/12 03:26:20;;;;;;;6.20;4.20;;;19.60;51.50;;;;;;5102645;28;20566;-80
2022/10/12 03:28:50;;;;;;;4.37;3.80;;;19.60;51.50;;;;;;5099199;28;20453;-80
2022/10/12 03:31:18;;;;;;;8.10;4.90;;;19.50;51.30;;;;;;5092971;28;20468;-80
2022/10/12 03:33:46;;;;;;;5.53;3.90;;;19.50;51.30;;;;;;5103490;28;20444;-81
2022/10/12 03:36:14;;;;;;;4.90;3.57;;;19.50;51.30;;;;;;5102716;28;20455;-81
2022/10/12 03:38:42;;;;;;;6.73;4.17;;;19.50;51.60;;;;;;5090144;28;20459;-79
2022/10/12 03:41:11;;;;;;;7.73;4.37;;;19.50;51.60;;;;;;5091149;28;20451;-80
2022/10/12 03:43:39;;;;;;;7.07;4.43;;;19.50;51.40;;;;;;5098244;28;20436;-79
2022/10/12 03:46:07;;;;;;;7.23;3.97;;;19.40;51.40;;;;;;5093338;28;20457;-78
2022/10/12 03:48:35;;;;;;;4.93;4.30;;;19.40;51.50;;;;;;5096541;28;20479;-79
2022/10/12 03:51:03;;;;;;;5.03;4.20;;;19.40;51.70;;;;;;5077869;28;20470;-78
2022/10/12 03:53:31;;;;;;;4.40;3.83;;;19.40;51.70;;;;;;5095555;28;20464;-79
2022/10/12 03:55:59;;;;;;;5.80;4.03;;;19.40;51.40;;;;;;5078756;28;20468;-78
2022/10/12 03:58:28;;;;;;;4.70;3.47;;;19.30;51.60;;;;;;5088869;28;20448;-79
2022/10/12 04:00:56;;;;;;;6.70;3.73;;;19.30;51.50;;;;;;5097160;28;20800;-80
2022/10/12 04:03:24;;;;;;;6.33;4.20;;;19.30;51.70;;;;;;5085709;28;20447;-80
2022/10/12 04:05:53;;;;;;;5.83;3.50;;;19.30;51.80;;;;;;5092903;28;20453;-79
2022/10/12 04:08:21;;;;;;;5.57;4.13;;;19.30;51.60;;;;;;5085913;28;20457;-80
2022/10/12 04:10:50;;;;;;;6.47;3.73;;;19.30;51.70;;;;;;5100647;28;20426;-80
2022/10/12 04:13:18;;;;;;;4.37;3.73;;;19.30;51.50;;;;;;5087517;28;20514;-80
2022/10/12 04:15:47;;;;;;;5.23;3.60;;;19.20;51.60;;;;;;5082859;28;20932;-80
2022/10/12 04:18:15;;;;;;;5.30;4.23;;;19.20;51.70;;;;;;5096096;28;20407;-80
2022/10/12 04:20:43;;;;;;;5.47;3.93;;;19.10;51.60;;;;;;5103889;28;20453;-80
2022/10/12 04:23:11;;;;;;;4.10;3.43;;;19.10;51.80;;;;;;5101881;28;20522;-81
2022/10/12 04:25:40;;;;;;;7.07;3.70;;;19.10;51.80;;;;;;5092353;28;20461;-79
2022/10/12 04:28:07;;;;;;;4.43;3.43;;;19.10;52.00;;;;;;5080997;28;20458;-80
2022/10/12 04:30:36;;;;;;;5.87;4.00;;;19.10;51.90;;;;;;5097132;28;20457;-79
2022/10/12 04:33:05;;;;;;;6.00;3.70;;;19.10;52.10;;;;;;5092364;28;20479;-80
2022/10/12 04:35:33;;;;;;;4.17;3.77;;;19.10;51.90;;;;;;5100467;28;20453;-80
2022/10/12 04:38:01;;;;;;;5.60;4.00;;;19.10;52.00;;;;;;5097106;28;20459;-79
2022/10/12 04:40:30;;;;;;;5.83;3.83;;;19.00;51.80;;;;;;5099880;28;20512;-80
2022/10/12 04:42:58;;;;;;;4.97;3.60;;;19.00;52.00;;;;;;5090082;28;20803;-78
2022/10/12 04:45:25;;;;;;;5.10;3.60;;;19.00;52.00;;;;;;5093342;28;20444;-80
2022/10/12 04:47:53;;;;;;;3.83;3.40;;;19.00;52.10;;;;;;5084532;28;20449;-80
2022/10/12 04:50:23;;;;;;;4.30;3.80;;;19.00;51.80;;;;;;5099219;28;20433;-80
2022/10/12 04:52:56;;;;;;;4.27;3.60;;;19.00;52.10;;;;;;5095766;28;20487;-80
2022/10/12 04:55:24;;;;;;;6.10;4.20;;;19.00;51.90;;;;;;5096579;28;20445;-81
2022/10/12 04:57:52;;;;;;;4.40;3.57;;;19.00;51.90;;;;;;5100835;28;20452;-80
2022/10/12 05:00:20;;;;;;;4.10;3.20;;;18.90;51.90;;;;;;5088183;28;20456;-80
2022/10/12 05:02:49;;;;;;;6.63;3.50;;;18.90;51.90;;;;;;5095842;28;20556;-80
2022/10/12 05:05:17;;;;;;;5.80;3.53;;;18.90;52.00;;;;;;5100745;28;20437;-80
2022/10/12 05:07:46;;;;;;;4.03;3.17;;;18.90;51.90;;;;;;5088432;28;20458;-79
2022/10/12 05:10:14;;;;;;;3.63;3.00;;;18.90;52.10;;;;;;5095426;28;20460;-79
2022/10/12 05:12:42;;;;;;;6.63;3.67;;;18.90;51.90;;;;;;5097824;28;20472;-80
2022/10/12 05:15:11;;;;;;;3.90;3.20;;;18.80;51.80;;;;;;5095415;28;20453;-80
2022/10/12 05:17:39;;;;;;;4.70;3.30;;;18.80;52.00;;;;;;5085934;28;20465;-79
2022/10/12 05:20:09;;;;;;;3.67;3.30;;;18.80;52.00;;;;;;5093880;28;20448;-80
2022/10/12 05:22:37;;;;;;;5.53;3.63;;;18.70;52.10;;;;;;5085075;28;20548;-80
2022/10/12 05:25:09;;;;;;;4.60;3.00;;;18.70;52.10;;;;;;5098812;28;20517;-80
2022/10/12 05:27:37;;;;;;;3.83;3.53;;;18.80;52.00;;;;;;5101209;28;20449;-80
2022/10/12 05:30:07;;;;;;;4.83;3.40;;;18.80;52.20;;;;;;5098082;28;20441;-80
2022/10/12 05:32:36;;;;;;;5.40;2.90;;;18.70;51.90;;;;;;5103167;28;20472;-80
2022/10/12 05:35:05;;;;;;;4.40;3.30;;;18.70;52.10;;;;;;5104907;28;20519;-80
2022/10/12 05:37:33;;;;;;;5.87;3.40;;;18.70;52.10;;;;;;5103814;28;20452;-81
2022/10/12 05:40:01;;;;;;;4.20;3.10;;;18.70;52.10;;;;;;5087071;28;20513;-80
2022/10/12 05:42:31;;;;;;;4.07;3.20;;;18.70;52.00;;;;;;5094416;28;20483;-80
2022/10/12 05:44:58;;;;;;;4.07;3.27;;;18.60;52.20;;;;;;5087214;28;20445;-80
2022/10/12 05:47:27;;;;;;;3.23;2.97;;;18.60;52.10;;;;;;5090066;28;20452;-81
2022/10/12 05:49:55;;;;;;;5.30;3.43;;;18.60;52.20;;;;;;5095286;28;20459;-80
2022/10/12 05:52:23;;;;;;;3.93;3.10;;;18.60;52.10;;;;;;5103494;28;20495;-81
2022/10/12 05:54:51;;;;;;;3.50;3.10;;;18.60;52.10;;;;;;5103299;28;20463;-80
2022/10/12 05:57:18;;;;;;;5.33;3.20;;;18.60;52.20;;;;;;5102308;28;20460;-80
2022/10/12 05:59:48;;;;;;;5.50;3.47;;;18.60;52.30;;;;;;5101663;28;20448;-78
2022/10/12 06:02:17;;;;;;;3.50;2.90;;;18.60;52.20;;;;;;5094058;28;20491;-79
2022/10/12 06:04:45;;;;;;;4.13;3.20;;;18.60;52.10;;;;;;5100584;28;20441;-80
2022/10/12 06:07:13;;;;;;;3.80;3.27;;;18.50;52.20;;;;;;5097710;28;20448;-79
2022/10/12 06:09:43;;;;;;;4.60;3.17;;;18.50;52.20;;;;;;5083430;28;20445;-79
2022/10/12 06:12:11;;;;;;;2.87;2.67;;;18.60;52.20;;;;;;5091970;28;20560;-80
2022/10/12 06:14:39;;;;;;;4.53;3.30;;;18.50;52.10;;;;;;5082749;28;20480;-80
2022/10/12 06:17:09;;;;;;;3.57;2.80;;;18.50;52.20;;;;;;5097223;28;20450;-80
2022/10/12 06:19:36;;;;;;;3.70;3.20;;;18.50;52.10;;;;;;5106291;28;20467;-79
2022/10/12 06:22:04;;;;;;;2.93;2.63;;;18.50;52.10;;;;;;5102574;28;20464;-79
2022/10/12 06:24:33;;;;;;;3.40;3.10;;;18.50;52.30;;;;;;5104466;28;20433;-79
2022/10/12 06:27:01;;;;;;;3.60;2.90;;;18.50;52.40;;;;;;5095042;28;20454;-80
2022/10/12 06:29:29;;;;;;;3.53;2.90;;;18.50;52.20;;;;;;5095828;28;20449;-79
2022/10/12 06:31:57;;;;;;;3.90;3.20;;;18.50;52.10;;;;;;5106084;28;20461;-80
2022/10/12 06:34:27;;;;;;;3.70;3.00;;;18.50;52.20;;;;;;5088796;28;20534;-79
2022/10/12 06:36:55;;;;;;;3.87;2.87;;;18.50;52.30;;;;;;5102106;28;20459;-80
2022/10/12 06:39:28;;;;;;;4.00;3.13;;;18.50;52.30;;;;;;5105256;28;20519;-80
2022/10/12 06:41:56;;;;;;;3.07;2.77;;;18.50;52.20;;;;;;5095944;28;20466;-78
2022/10/12 06:44:24;;;;;;;4.30;3.30;;;18.50;52.30;;;;;;5096152;28;20469;-78
2022/10/12 06:46:52;;;;;;;3.13;2.57;;;18.50;52.30;;;;;;5082525;28;20456;-78
2022/10/12 06:49:20;;;;;;;4.13;3.20;;;18.60;52.20;;;;;;5098448;28;20452;-79
2022/10/12 06:51:50;;;;;;;3.40;3.10;;;18.50;52.30;;;;;;5099217;28;20461;-78
2022/10/12 06:54:18;;;;;;;3.47;2.83;;;18.60;52.30;;;;;;5119007;27;20472;-79
2022/10/12 06:56:46;;;;;;;2.90;2.70;;;18.60;52.30;;;;;;5120756;28;20451;-79
2022/10/12 06:59:14;;;;;;;5.00;3.03;;;18.60;52.00;;;;;;5119469;28;20442;-79
2022/10/12 07:01:42;;;;;;;3.40;2.90;;;18.60;52.00;;;;;;5099488;28;20480;-79
2022/10/12 07:04:10;;;;;;;5.03;3.03;;;18.60;52.10;;;;;;5083336;28;20536;-79
2022/10/12 07:06:38;;;;;;;3.33;2.30;;;18.70;52.10;;;;;;5119362;27;20455;-78
2022/10/12 07:09:14;;;;;;;3.93;2.83;;;18.70;52.10;;;;;;5118853;28;20451;-80
2022/10/12 07:11:41;;;;;;;3.67;3.00;;;18.70;52.20;;;;;;5118315;28;20448;-79
2022/10/12 07:14:10;;;;;;;3.33;2.93;;;18.70;52.20;;;;;;5115703;28;20468;-79
2022/10/12 07:16:37;;;;;;;2.77;2.57;;;18.80;52.30;;;;;;5116302;28;20946;-79
2022/10/12 07:19:05;;;;;;;5.30;2.90;;;18.70;52.00;;;;;;5090580;28;20448;-80
2022/10/12 07:21:33;;;;;;;5.37;3.20;;;18.80;52.40;;;;;;5092778;28;20477;-80
2022/10/12 07:24:02;;;;;;;5.20;2.93;;;18.80;52.80;;;;;;5099670;28;20437;-80
2022/10/12 07:26:31;;;;;;;2.87;2.67;;;18.80;52.30;;;;;;5098492;28;20451;-80
2022/10/12 07:29:01;;;;;;;4.27;3.13;;;18.80;52.20;;;;;;5095128;28;20433;-81
2022/10/12 07:31:28;;;;;;;3.97;3.10;;;18.90;52.10;;;;;;5075379;28;20477;-80
2022/10/12 07:33:57;;;;;;;4.30;2.80;;;18.90;52.10;;;;;;5097095;28;20476;-79
2022/10/12 07:36:25;;;;;;;3.00;2.80;;;19.00;52.00;;;;;;5098903;28;20455;-79
2022/10/12 07:39:13;;;;;;;3.73;3.20;;;19.00;52.20;;;;;;5098388;28;20498;-79
2022/10/12 07:41:43;;;;;;;3.20;2.90;;;19.00;51.90;;;;;;5096574;28;20499;-78
2022/10/12 07:44:11;;;;;;;4.07;2.90;;;19.10;52.20;;;;;;5090821;28;20456;-78
2022/10/12 07:46:39;;;;;;;4.30;3.33;;;19.10;52.00;;;;;;5095801;28;20464;-78
2022/10/12 07:49:07;;;;;;;2.83;2.47;;;19.20;51.90;;;;;;5096901;28;20441;-79
2022/10/12 07:51:35;;;;;;;4.80;2.87;;;19.30;51.90;;;;;;5098246;28;20472;-79
2022/10/12 07:54:03;;;;;;;3.23;2.67;;;19.40;51.90;;;;;;5081850;28;20470;-80
2022/10/12 07:56:31;;;;;;;4.60;2.40;;;19.50;51.40;;;;;;5100218;28;20452;-80
2022/10/12 07:59:01;;;;;;;2.97;2.50;;;19.60;51.30;;;;;;5080486;28;20453;-79
2022/10/12 08:01:29;;;;;;;3.00;2.80;;;19.70;51.10;;;;;;5094567;28;20473;-79
2022/10/12 08:03:58;;;;;;;3.17;2.63;;;19.70;51.50;;;;;;5080017;28;20425;-79
2022/10/12 08:06:30;;;;;;;2.77;2.57;;;19.80;51.20;;;;;;5080947;28;20422;-79
2022/10/12 08:08:58;;;;;;;6.50;2.40;;;19.90;51.20;;;;;;5080462;28;20445;-79
2022/10/12 08:11:26;;;;;;;4.17;2.60;;;19.90;51.00;;;;;;5079668;28;20473;-80
2022/10/12 08:13:54;;;;;;;3.70;2.70;;;20.00;50.80;;;;;;5088408;28;20452;-81
2022/10/12 08:16:24;;;;;;;3.37;2.60;;;20.10;51.20;;;;;;5100430;28;20525;-80
2022/10/12 08:18:51;;;;;;;3.50;2.83;;;20.20;50.70;;;;;;5106497;28;20428;-80
2022/10/12 08:21:20;;;;;;;3.63;2.90;;;20.20;51.00;;;;;;5106836;28;20490;-79
2022/10/12 08:23:47;;;;;;;3.57;2.70;;;20.40;51.00;;;;;;5100550;28;20448;-80
2022/10/12 08:26:16;;;;;;;3.70;3.40;;;20.50;50.60;;;;;;5104971;28;20946;-80
2022/10/12 08:28:44;;;;;;;3.53;3.23;;;20.60;50.40;;;;;;5102331;28;20449;-80
2022/10/12 08:31:13;;;;;;;5.67;3.37;;;20.80;50.30;;;;;;5099999;28;20508;-81
2022/10/12 08:33:43;;;;;;;5.03;3.40;;;20.90;50.30;;;;;;5106646;28;20453;-80
2022/10/12 08:36:11;;;;;;;7.90;3.33;;;21.10;50.20;;;;;;5106870;28;20472;-80
2022/10/12 08:38:41;;;;;;;5.30;3.23;;;21.30;50.00;;;;;;5101937;28;20457;-80
2022/10/12 08:41:23;;;;;;;4.77;3.40;;;21.50;50.10;;;;;;5099899;28;20559;-80
2022/10/12 08:44:06;;;;;;;4.43;3.23;;;21.80;50.00;;;;;;5102063;28;20423;-80
2022/10/12 08:46:35;;;;;;;4.07;3.57;;;22.00;49.80;;;;;;5103238;28;20437;-79
2022/10/12 08:49:05;;;;;;;3.93;3.53;;;22.10;49.50;;;;;;5103745;28;20429;-80
2022/10/12 08:51:36;;;;;;;6.17;4.40;;;22.10;49.40;;;;;;5102105;28;20437;-80
2022/10/12 08:54:06;;;;;;;3.63;3.17;;;22.20;49.40;;;;;;5100481;28;20440;-80
2022/10/12 08:56:34;;;;;;;4.50;3.23;;;22.30;49.40;;;;;;5102091;28;20404;-80
2022/10/12 08:59:02;;;;;;;5.00;3.20;;;22.30;49.30;;;;;;5101207;28;20415;-80
2022/10/12 09:01:35;;;;;;;6.67;3.90;;;22.40;49.20;;;;;;5103658;28;20463;-80
2022/10/12 09:04:14;;;;;;;7.07;4.30;;;22.50;49.30;;;;;;5105771;28;20425;-79
2022/10/12 09:06:46;;;;;;;7.17;3.80;;;22.60;49.30;;;;;;5105298;28;20440;-80
2022/10/12 09:09:20;;;;;;;6.97;4.43;;;22.90;49.30;;;;;;5105579;28;20414;-81
2022/10/12 09:12:04;;;;;;;6.20;4.30;;;23.20;49.10;;;;;;5104618;28;20452;-78
2022/10/12 09:14:33;;;;;;;9.37;5.30;;;23.60;49.00;;;;;;5105635;28;20464;-80
2022/10/12 09:17:02;;;;;;;8.90;4.93;;;23.90;48.70;;;;;;5105397;28;20436;-79
2022/10/12 09:19:34;;;;;;;5.90;5.13;;;24.10;48.50;;;;;;5106768;28;20419;-79
2022/10/12 09:22:02;;;;;;;6.87;4.80;;;24.40;48.20;;;;;;5106853;28;20438;-79
2022/10/12 09:24:33;;;;;;;9.33;5.67;;;24.70;48.10;;;;;;5105960;28;20444;-80
2022/10/12 09:27:07;;;;;;;6.77;5.43;;;25.00;47.70;;;;;;5105342;28;20441;-79
2022/10/12 09:29:36;;;;;;;7.17;5.50;;;25.20;47.50;;;;;;5105331;28;20425;-80
2022/10/12 09:32:23;;;;;;;9.57;5.97;;;25.40;47.30;;;;;;5104981;28;20439;-81
2022/10/12 09:34:52;;;;;;;7.40;5.50;;;25.70;47.10;;;;;;5104145;28;20491;-81
2022/10/12 09:37:21;;;;;;;7.70;5.77;;;26.00;46.70;;;;;;5104247;28;20444;-81
2022/10/12 09:39:49;;;;;;;9.40;6.30;;;26.30;46.40;;;;;;5104953;28;20455;-82
2022/10/12 09:42:17;;;;;;;7.80;5.40;;;26.60;45.90;;;;;;5106171;28;20469;-81
2022/10/12 09:44:47;;;;;;;7.53;5.93;;;26.70;45.60;;;;;;5106145;28;20419;-81
2022/10/12 09:47:27;;;;;;;9.50;6.40;;;26.80;45.40;;;;;;5098952;28;20443;-76
2022/10/12 09:50:00;;;;;;;6.93;6.10;;;26.90;45.40;;;;;;5104420;28;20413;-80
2022/10/12 09:52:30;;;;;;;6.93;5.50;;;26.90;45.20;;;;;;5109200;28;20439;-81
2022/10/12 09:55:00;;;;;;;7.90;6.03;;;27.00;45.10;;;;;;5110139;28;20443;-80
2022/10/12 09:57:34;;;;;;;9.23;7.07;;;27.00;45.00;;;;;;5110186;28;20423;-82
2022/10/12 10:00:05;;;;;;;8.50;6.47;;;27.20;44.80;;;;;;5110611;28;20429;-80
2022/10/12 10:02:33;;;;;;;9.07;6.63;;;27.30;44.70;;;;;;5110197;28;20440;-81
2022/10/12 10:05:15;;;;;;;13.13;7.70;;;27.30;44.50;;;;;;5110707;28;20429;-81
2022/10/12 10:07:43;;;;;;;10.07;7.37;;;27.40;44.70;;;;;;5108957;28;20977;-79
2022/10/12 10:10:16;;;;;;;9.43;7.03;;;27.40;44.50;;;;;;5107277;28;20442;-81
2022/10/12 10:12:49;;;;;;;10.80;7.53;;;27.50;44.60;;;;;;5106132;28;20435;-82
2022/10/12 10:15:23;;;;;;;11.00;7.67;;;27.70;44.40;;;;;;5106484;28;20471;-80
2022/10/12 10:17:52;;;;;;;9.40;7.37;;;27.90;44.20;;;;;;5103824;28;20437;-78
2022/10/12 10:20:26;;;;;;;9.07;7.17;;;28.20;44.00;;;;;;5105514;28;20436;-80
2022/10/12 10:22:54;;;;;;;8.30;6.50;;;28.50;43.60;;;;;;5104646;28;20908;-79
2022/10/12 10:25:23;;;;;;;9.10;7.03;;;28.80;43.30;;;;;;5103755;28;20441;-78
2022/10/12 10:27:51;;;;;;;9.30;7.40;;;29.10;43.10;;;;;;5103584;28;20440;-79
2022/10/12 10:30:21;;;;;;;8.00;7.20;;;29.40;42.60;;;;;;5104855;28;20728;-81
2022/10/12 10:33:13;;;;;;;7.53;6.43;;;29.70;42.30;;;;;;5103300;28;20453;-80
2022/10/12 10:36:03;;;;;;;7.90;7.07;;;30.00;42.00;;;;;;5102933;28;20472;-80
2022/10/12 10:38:32;;;;;;;7.17;6.47;;;30.40;41.60;;;;;;5104126;28;20407;-80
2022/10/12 10:41:02;;;;;;;11.83;6.57;;;30.70;41.10;;;;;;5104511;28;20440;-78
2022/10/12 10:43:31;;;;;;;7.90;6.40;;;31.00;40.70;;;;;;5104702;28;20436;-80
2022/10/12 10:45:59;;;;;;;6.93;6.23;;;31.30;40.40;;;;;;5103631;28;20441;-80
2022/10/12 10:48:29;;;;;;;5.60;5.10;;;31.50;40.00;;;;;;5102309;28;20415;-78
2022/10/12 10:51:00;;;;;;;6.00;5.40;;;31.70;39.60;;;;;;5102255;28;20432;-80
2022/10/12 10:53:30;;;;;;;7.60;5.63;;;31.90;39.20;;;;;;5103344;28;20502;-79
2022/10/12 10:56:01;;;;;;;8.20;5.60;;;32.10;39.00;;;;;;5101638;28;20472;-81
2022/10/12 10:58:32;;;;;;;5.73;5.17;;;32.30;38.80;;;;;;5101379;28;20460;-79
2022/10/12 11:01:02;;;;;;;5.97;5.17;;;32.70;38.40;;;;;;5101408;28;20443;-80
2022/10/12 11:03:33;;;;;;;6.07;5.00;;;33.50;37.20;;;;;;5102196;28;20433;-80
2022/10/12 11:06:07;;;;;;;6.87;5.30;;;34.50;36.00;;;;;;5101018;28;20440;-79
2022/10/12 11:08:36;;;;;;;4.70;4.40;;;35.50;34.50;;;;;;5102494;28;20456;-80
2022/10/12 11:11:07;;;;;;;5.63;4.53;;;36.60;33.00;;;;;;5103263;28;20452;-81
2022/10/12 11:13:38;;;;;;;4.60;4.20;;;37.60;31.70;;;;;;5101192;28;20433;-80
2022/10/12 11:16:10;;;;;;;4.23;3.97;;;38.50;30.30;;;;;;5102620;28;20468;-81
2022/10/12 11:18:40;;;;;;;4.40;4.00;;;39.40;29.40;;;;;;5101772;28;20437;-78
2022/10/12 11:21:12;;;;;;;3.80;3.50;;;40.20;28.60;;;;;;5101827;28;20459;-78
2022/10/12 11:23:42;;;;;;;3.83;3.60;;;40.90;28.10;;;;;;5102706;28;20970;-80
2022/10/12 11:26:15;;;;;;;3.10;2.90;;;41.50;27.40;;;;;;5101190;28;20440;-78
2022/10/12 11:28:43;;;;;;;2.70;2.60;;;42.10;26.80;;;;;;5098704;28;20436;-79
2022/10/12 11:31:17;;;;;;;2.80;2.70;;;42.60;26.20;;;;;;5097629;28;20464;-80
2022/10/12 11:33:45;;;;;;;4.40;3.10;;;43.20;25.80;;;;;;5097432;28;20436;-78
2022/10/12 11:36:18;;;;;;;3.00;2.80;;;43.60;25.50;;;;;;5093272;28;20491;-77
2022/10/12 11:38:46;;;;;;;2.97;2.77;;;44.10;24.90;;;;;;5094981;28;20435;-77
2022/10/12 11:41:15;;;;;;;2.83;2.73;;;44.40;24.50;;;;;;5092176;28;20468;-78
2022/10/12 11:44:05;;;;;;;2.23;2.13;;;44.60;24.20;;;;;;5092519;28;20463;-76
2022/10/12 11:46:34;;;;;;;2.30;2.20;;;45.00;24.00;;;;;;5092397;28;20525;-78
2022/10/12 11:49:06;;;;;;;2.40;2.30;;;45.20;23.80;;;;;;5093611;28;20446;-78
2022/10/12 11:51:35;;;;;;;2.10;2.00;;;45.30;23.50;;;;;;5092299;28;20589;-76
2022/10/12 11:54:04;;;;;;;2.07;1.97;;;45.50;23.40;;;;;;5092587;28;20443;-76
2022/10/12 11:56:34;;;;;;;2.67;2.58;;;45.60;23.50;;;;;;5092316;28;20486;-77
2022/10/12 11:59:04;;;;;;;3.00;2.77;;;45.70;23.20;;;;;;5092579;28;20203;-78
2022/10/12 12:01:47;;;;;;;1.85;1.80;;;45.70;23.00;;;;;;5092985;28;20464;-78
2022/10/12 12:04:22;;;;;;;2.30;2.20;;;45.80;23.10;;;;;;5094133;28;20207;-77
2022/10/12 12:07:39;;;;;;;2.00;1.90;;;45.90;23.10;;;;;;5093132;28;20433;-79
2022/10/12 12:10:40;;;;;;;1.70;1.60;;;46.10;23.00;;;;;;5094236;28;20443;-78
2022/10/12 12:13:17;;;;;;;1.77;1.67;;;46.30;22.70;;;;;;5094534;28;20221;-79
2022/10/12 12:16:32;;;;;;;1.88;1.75;;;46.40;22.50;;;;;;5092700;28;20210;-78
2022/10/12 12:19:10;;;;;;;1.85;1.75;;;46.60;22.30;;;;;;5092713;28;20207;-79
2022/10/12 12:22:12;;;;;;;2.10;1.98;;;46.80;22.20;;;;;;5092040;28;20220;-78
2022/10/12 12:24:41;;;;;;;1.70;1.60;;;46.80;22.00;;;;;;5092595;28;20203;-78
2022/10/12 12:27:21;;;;;;;1.45;1.45;;;46.80;22.00;;;;;;5092012;28;20195;-78
2022/10/12 12:29:50;;;;;;;1.50;1.40;;;47.00;21.80;;;;;;5092082;28;20196;-79
2022/10/12 12:32:18;;;;;;;1.85;1.75;;;47.00;21.70;;;;;;5091806;28;20487;-78
2022/10/12 12:34:52;;;;;;;1.38;1.38;;;47.00;21.50;;;;;;5091909;28;20674;-78
2022/10/12 12:37:28;;;;;;;1.67;1.58;;;47.10;21.50;;;;;;5091753;28;20233;-78
2022/10/12 12:39:58;;;;;;;3.30;1.35;;;47.20;21.30;;;;;;5092050;28;20211;-78
2022/10/12 12:42:30;;;;;;;1.75;1.50;;;47.20;21.30;;;;;;5091546;28;20223;-78
2022/10/12 12:45:00;;;;;;;1.23;1.20;;;47.30;21.10;;;;;;5091862;28;20200;-77
2022/10/12 12:47:37;;;;;;;2.05;1.20;;;47.30;21.00;;;;;;5091577;28;20203;-77
2022/10/12 12:50:31;;;;;;;1.30;1.30;;;47.20;20.90;;;;;;5091888;28;20210;-78
2022/10/12 12:53:05;;;;;;;1.40;1.30;;;47.20;20.90;;;;;;5091437;28;20245;-77
2022/10/12 12:55:52;;;;;;;1.58;1.48;;;47.30;20.90;;;;;;5091579;28;20561;-78
2022/10/12 12:58:34;;;;;;;1.27;1.27;;;47.30;20.90;;;;;;5091160;28;20226;-78
2022/10/12 13:01:14;;;;;;;1.30;1.20;;;47.30;20.70;;;;;;5091866;28;20199;-78
2022/10/12 13:03:59;;;;;;;1.58;1.48;;;47.20;20.70;;;;;;5091925;28;20249;-78